Ebbco — WCP3976 — position and weather

sailwx.info

Track history (hours):
 
Tides and Currents Weather Stations Pressure Air Temp Water Temp Dewpoint Dewpoint Depression Visibility Wind Speed Wind Dir Waves Ship Positions

Ebbco

Owner: EVERINGHAM BROS BAIT CO, La Mesa, CA. More information available from US FCC via Universal Licensing System.

Last reported at 2017-Nov-25 14:41 UTC. Time now 2017-Dec-17 23:24 UTC.
Position N 32°45' W 117°17'.
Warning: this ship's position is 22 days out of date.

Length 34 m.

Type: Fishing. MMSI: 367378380.

Date/timePositionNaut miles runAvg speedWind from/ knotsBaromVisibWave heightAir tempDewpointWater temp
2017-Nov-25 14:41N 32°45' W 117°17'1 7.5
2017-Nov-25 14:30N 32°45' W 117°15'1 0.5
2017-Nov-25 13:20N 32°46' W 117°15'  
2017-Nov-17 18:06N 32°44' W 117°17'1 7.9
2017-Nov-17 17:55N 32°46' W 117°18'3 7.7
2017-Nov-17 17:30N 32°49' W 117°18'4 7.5
2017-Nov-17 17:00N 32°52' W 117°17'2 4.3
2017-Nov-17 16:30N 32°54' W 117°16'1 1.9
2017-Nov-17 16:00N 32°55' W 117°16'2 3.8
2017-Nov-17 15:30N 32°53' W 117°15'4 7.0
2017-Nov-17 15:00N 32°51' W 117°19'4 7.1
2017-Nov-17 14:25N 32°47' W 117°16'1 1.6
2017-Nov-17 13:57N 32°47' W 117°16'0 0.1
2017-Nov-17 13:27N 32°47' W 117°16'0 0.0
2017-Nov-17 12:57N 32°47' W 117°16'0 0.1
2017-Nov-17 12:12N 32°47' W 117°16'1 2.9
2017-Nov-17 11:55N 32°47' W 117°16'  
Track history (hours):
 
Tides and Currents Weather Stations Pressure Air Temp Water Temp Dewpoint Dewpoint Depression Visibility Wind Speed Wind Dir Waves Ship Positions

Ebbco

Owner: EVERINGHAM BROS BAIT CO, La Mesa, CA. More information available from US FCC via Universal Licensing System.

Last reported at 2017-Nov-25 14:41 UTC. Time now 2017-Dec-17 23:24 UTC.
Position N 32°45' W 117°17'.
Warning: this ship's position is 22 days out of date.

Length 34 m.

Type: Fishing. MMSI: 367378380.

Date/timePositionNaut miles runAvg speedWind from/ knotsBaromVisibWave heightAir tempDewpointWater temp
2017-Nov-25 14:41N 32°45' W 117°17'1 7.5
2017-Nov-25 14:30N 32°45' W 117°15'1 0.5
2017-Nov-25 13:20N 32°46' W 117°15'  
2017-Nov-17 18:06N 32°44' W 117°17'1 7.9
2017-Nov-17 17:55N 32°46' W 117°18'3 7.7
2017-Nov-17 17:30N 32°49' W 117°18'4 7.5
2017-Nov-17 17:00N 32°52' W 117°17'2 4.3
2017-Nov-17 16:30N 32°54' W 117°16'1 1.9
2017-Nov-17 16:00N 32°55' W 117°16'2 3.8
2017-Nov-17 15:30N 32°53' W 117°15'4 7.0
2017-Nov-17 15:00N 32°51' W 117°19'4 7.1
2017-Nov-17 14:25N 32°47' W 117°16'1 1.6
2017-Nov-17 13:57N 32°47' W 117°16'0 0.1
2017-Nov-17 13:27N 32°47' W 117°16'0 0.0
2017-Nov-17 12:57N 32°47' W 117°16'0 0.1
2017-Nov-17 12:12N 32°47' W 117°16'1 2.9
2017-Nov-17 11:55N 32°47' W 117°16'  

Dump ship's entire track history